Time;durP1;ratioP1;P1;durP2;ratioP2;P2;SDS_P1;SDS_P2;PMS_P1;PMS_P2;Temp;Humidity;BMP_temperature;BMP_pressure;BME280_temperature;BME280_humidity;BME280_pressure;Samples;Min_cycle;Max_cycle;Signal;HPM_P1;HPM_P2
2023/03/01 00:01:50;;;;;;;;;14.50;13.75;;;;;4.36;42.09;101946.59;5091070;27;45750;-76
2023/03/01 00:04:15;;;;;;;;;7.75;5.00;;;;;4.36;42.15;101954.38;5087262;27;45798;-78
2023/03/01 00:06:47;;;;;;;;;18.75;15.00;;;;;4.27;42.32;101945.06;5088874;27;46388;-77
2023/03/01 00:09:13;;;;;;;;;18.00;17.00;;;;;4.36;42.44;101963.03;5072827;27;47383;-77
2023/03/01 00:11:39;;;;;;;;;19.25;16.50;;;;;4.23;42.46;101939.09;5087137;27;46059;-79
2023/03/01 00:14:04;;;;;;;;;16.50;16.25;;;;;4.04;42.89;101922.28;5089029;27;45607;-77
2023/03/01 00:16:38;;;;;;;;;16.75;10.00;;;;;4.29;42.59;101960.59;5092943;27;46650;-77
2023/03/01 00:19:05;;;;;;;;;18.25;16.25;;;;;4.22;42.84;101965.06;5104270;27;46399;-78
2023/03/01 00:21:32;;;;;;;;;22.50;16.75;;;;;4.17;42.77;101965.19;5090219;27;45770;-77
2023/03/01 00:23:58;;;;;;;;;10.00;8.00;;;;;4.07;42.74;101952.47;5091509;27;45805;-77
2023/03/01 00:26:25;;;;;;;;;16.75;16.00;;;;;4.09;42.90;101963.66;5090919;27;47696;-78
2023/03/01 00:28:51;;;;;;;;;14.50;13.75;;;;;4.10;43.05;101970.56;5092525;27;46556;-78
2023/03/01 00:31:20;;;;;;;;;19.75;18.00;;;;;3.94;42.83;101951.03;5085035;27;45659;-77
2023/03/01 00:33:46;;;;;;;;;11.50;11.00;;;;;4.00;43.04;101972.47;5089095;27;45753;-78
2023/03/01 00:36:13;;;;;;;;;14.00;10.75;;;;;3.91;43.34;101958.88;5092110;27;46910;-77
2023/03/01 00:38:41;;;;;;;;;18.00;15.00;;;;;3.92;43.19;101968.38;5092654;27;46123;-76
2023/03/01 00:41:11;;;;;;;;;14.50;11.25;;;;;3.88;43.58;101966.72;5092136;27;45847;-78
2023/03/01 00:43:36;;;;;;;;;15.50;14.00;;;;;3.71;43.66;101942.03;5090606;27;46090;-79
2023/03/01 00:46:16;;;;;;;;;16.00;14.00;;;;;3.79;43.85;101966.03;5092116;27;46520;-77
2023/03/01 00:48:42;;;;;;;;;14.50;14.00;;;;;3.66;43.64;101943.00;5092398;27;46220;-77
2023/03/01 00:51:09;;;;;;;;;19.75;14.00;;;;;3.75;44.07;101963.53;5090452;27;45825;-78
2023/03/01 00:53:35;;;;;;;;;22.00;16.25;;;;;3.71;44.09;101961.91;5073702;27;45900;-77
2023/03/01 00:56:01;;;;;;;;;22.00;15.50;;;;;3.71;44.07;101969.69;5094007;27;47426;-77
2023/03/01 00:58:26;;;;;;;;;21.25;15.50;;;;;3.63;43.89;101953.41;5100436;27;46308;-77
2023/03/01 01:00:54;;;;;;;;;14.00;13.00;;;;;3.68;44.20;101964.53;5091010;27;45753;-76
2023/03/01 01:03:20;;;;;;;;;15.00;13.25;;;;;3.68;44.18;101964.53;5090209;27;45656;-77
2023/03/01 01:05:46;;;;;;;;;17.50;15.50;;;;;3.64;44.17;101965.50;5085915;27;47679;-77
2023/03/01 01:08:12;;;;;;;;;15.75;13.50;;;;;3.66;44.32;101967.19;5092454;27;47045;-77
2023/03/01 01:10:39;;;;;;;;;22.50;16.00;;;;;3.56;44.44;101952.72;5090778;27;46061;-76
2023/03/01 01:13:04;;;;;;;;;20.75;15.25;;;;;3.61;44.40;101962.97;5091688;27;45790;-78
2023/03/01 01:15:34;;;;;;;;;21.00;18.25;;;;;3.50;44.66;101949.41;5091948;27;46649;-76
2023/03/01 01:18:00;;;;;;;;;16.75;16.00;;;;;3.59;44.75;101965.59;5098388;27;46964;-76
2023/03/01 01:20:25;;;;;;;;;22.00;19.00;;;;;3.55;44.81;101963.97;5092594;27;45717;-76
2023/03/01 01:22:51;;;;;;;;;14.75;11.50;;;;;3.50;44.90;101954.56;5095751;27;45709;-77
2023/03/01 01:25:16;;;;;;;;;17.25;12.00;;;;;3.53;44.79;101957.94;5091856;27;46319;-76
2023/03/01 01:27:42;;;;;;;;;16.50;14.50;;;;;3.48;44.84;101952.00;5091261;27;47393;-77
2023/03/01 01:30:10;;;;;;;;;19.75;17.25;;;;;3.48;44.99;101952.00;5086643;27;45865;-78
2023/03/01 01:32:36;;;;;;;;;16.75;15.25;;;;;3.52;45.00;101955.38;5091120;27;45685;-77
2023/03/01 01:35:01;;;;;;;;;19.75;15.25;;;;;3.51;45.17;101956.28;5091323;27;46502;-78
2023/03/01 01:37:30;;;;;;;;;18.25;15.00;;;;;3.50;45.12;101952.84;5092388;27;46568;-78
2023/03/01 01:39:58;;;;;;;;;14.50;13.25;;;;;3.45;45.06;101940.88;5091697;27;45740;-76
2023/03/01 01:42:25;;;;;;;;;15.00;13.25;;;;;3.51;45.07;101943.34;5091939;27;45674;-77
2023/03/01 01:45:27;;;;;;;;;20.00;14.00;;;;;3.48;45.25;101935.59;5090516;27;47046;-77
2023/03/01 01:47:57;;;;;;;;;17.00;14.25;;;;;3.44;45.16;101929.66;5092079;27;46831;-77
2023/03/01 01:50:23;;;;;;;;;10.25;8.25;;;;;3.51;45.13;101922.59;5088302;27;46154;-77
2023/03/01 01:52:50;;;;;;;;;17.75;15.50;;;;;3.43;45.09;101914.97;5089013;27;45889;-77
2023/03/01 01:55:21;;;;;;;;;16.50;14.00;;;;;3.52;45.06;101930.31;5091200;27;45768;-77
2023/03/01 01:57:51;;;;;;;;;15.50;14.00;;;;;3.51;45.09;101931.19;5092079;27;46549;-77
2023/03/01 02:00:21;;;;;;;;;16.50;15.25;;;;;3.52;45.14;101927.75;5090908;27;45748;-77
2023/03/01 02:02:54;;;;;;;;;18.50;17.50;;;;;3.46;45.30;101912.31;5090741;27;45860;-77
2023/03/01 02:05:32;;;;;;;;;10.00;7.50;;;;;3.54;45.27;101922.53;5102827;27;47549;-77
2023/03/01 02:07:59;;;;;;;;;17.75;15.00;;;;;3.48;45.31;101917.47;5089414;27;46707;-75
2023/03/01 02:10:25;;;;;;;;;15.00;9.75;;;;;3.49;45.55;101937.31;5057723;27;45885;-76
2023/03/01 02:12:51;;;;;;;;;19.00;15.00;;;;;3.46;45.45;101938.22;5090955;27;45730;-77
2023/03/01 02:15:17;;;;;;;;;20.50;16.00;;;;;3.41;45.61;101916.75;5072098;27;47531;-77
2023/03/01 02:17:42;;;;;;;;;19.00;15.75;;;;;3.41;45.47;101932.28;5091483;27;46055;-78
2023/03/01 02:20:43;;;;;;;;;16.75;15.00;;;;;3.38;45.50;101925.44;5092197;27;46041;-78
2023/03/01 02:23:08;;;;;;;;;14.25;12.00;;;;;3.37;45.79;101923.72;5092591;27;46952;-76
2023/03/01 02:25:45;;;;;;;;;14.75;13.00;;;;;3.36;45.64;101915.97;5074161;27;46581;-78
2023/03/01 02:28:11;;;;;;;;;20.25;15.25;;;;;3.34;45.79;101916.03;5091964;27;46191;-77
2023/03/01 02:30:36;;;;;;;;;17.33;16.00;;;;;3.32;45.89;101909.16;5087175;27;45711;-77
2023/03/01 02:33:04;;;;;;;;;17.75;17.75;;;;;3.30;45.81;101906.59;5094988;27;45953;-77
2023/03/01 02:35:33;;;;;;;;;18.75;12.00;;;;;3.30;46.22;101900.56;5095653;27;47454;-77
2023/03/01 02:38:01;;;;;;;;;15.00;14.50;;;;;3.30;45.76;101897.97;5092839;27;47584;-77
2023/03/01 02:40:29;;;;;;;;;16.00;16.00;;;;;3.10;45.91;101866.47;5093412;27;47232;-77
2023/03/01 02:42:57;;;;;;;;;16.25;15.00;;;;;3.16;46.11;101874.97;5094183;27;45711;-77
2023/03/01 02:45:24;;;;;;;;;16.00;13.25;;;;;3.30;45.92;101906.59;5091739;27;45763;-77
2023/03/01 02:47:50;;;;;;;;;25.00;21.25;;;;;3.31;46.31;101899.69;5095747;27;46356;-77
2023/03/01 02:50:34;;;;;;;;;19.75;18.00;;;;;3.29;46.21;101894.53;5093879;27;45846;-76
2023/03/01 02:53:15;;;;;;;;;19.50;17.50;;;;;3.24;46.23;101896.38;5094357;27;46314;-77
2023/03/01 02:55:41;;;;;;;;;16.00;13.00;;;;;3.20;46.32;101892.13;5096443;27;45728;-78
2023/03/01 02:58:07;;;;;;;;;18.25;16.25;;;;;3.08;46.16;101884.59;5086546;27;47055;-78
2023/03/01 03:00:43;;;;;;;;;15.50;12.75;;;;;3.15;46.19;101893.09;5095027;27;45698;-77
2023/03/01 03:03:12;;;;;;;;;21.75;19.00;;;;;3.13;46.56;101894.91;5093318;27;45722;-78
2023/03/01 03:05:39;;;;;;;;;21.00;15.00;;;;;3.10;46.53;101892.34;5075895;27;46448;-76
2023/03/01 03:08:04;;;;;;;;;18.25;16.00;;;;;2.98;46.59;101875.31;5094148;27;46344;-77
2023/03/01 03:10:37;;;;;;;;;21.00;15.00;;;;;3.06;46.64;101890.72;5091838;27;45682;-77
2023/03/01 03:13:09;;;;;;;;;15.00;12.00;;;;;3.02;46.77;101878.72;5102915;27;46047;-77
2023/03/01 03:15:35;;;;;;;;;18.25;14.75;;;;;2.96;46.63;101864.16;5090103;27;45850;-76
2023/03/01 03:18:06;;;;;;;;;17.50;13.50;;;;;3.01;46.92;101870.09;5083016;27;47868;-77
2023/03/01 03:20:33;;;;;;;;;20.25;18.00;;;;;2.89;46.69;101853.06;5093626;27;46678;-77
2023/03/01 03:22:59;;;;;;;;;26.50;20.00;;;;;3.00;46.79;101876.16;5094186;27;45735;-77
2023/03/01 03:25:26;;;;;;;;;19.75;16.00;;;;;2.88;47.10;101855.69;5074785;27;47535;-78
2023/03/01 03:27:56;;;;;;;;;23.00;18.00;;;;;2.90;47.02;101857.38;5093147;27;46366;-77
2023/03/01 03:30:31;;;;;;;;;22.50;18.25;;;;;2.95;47.05;101873.66;5085395;27;45890;-78
2023/03/01 03:32:58;;;;;;;;;20.25;17.50;;;;;2.94;46.97;101866.78;5093906;27;45528;-77
2023/03/01 03:35:33;;;;;;;;;21.25;18.25;;;;;2.92;47.16;101868.53;5073490;27;45739;-76
2023/03/01 03:38:03;;;;;;;;;15.25;15.00;;;;;2.89;47.23;101867.75;5073830;27;46365;-77
2023/03/01 03:40:40;;;;;;;;;19.00;16.00;;;;;2.91;47.31;101881.50;5070750;27;45681;-77
2023/03/01 03:43:11;;;;;;;;;21.00;17.50;;;;;2.80;47.53;101855.00;5092277;27;45924;-77
2023/03/01 03:45:37;;;;;;;;;18.50;16.00;;;;;2.85;47.36;101858.34;5091803;27;47353;-77
2023/03/01 03:48:06;;;;;;;;;20.25;16.75;;;;;2.75;47.66;101841.28;5093898;27;45600;-77
2023/03/01 03:50:32;;;;;;;;;19.00;16.50;;;;;2.87;47.60;101860.00;5092577;27;45666;-77
2023/03/01 03:53:05;;;;;;;;;14.00;12.25;;;;;2.86;47.29;101858.28;5092736;27;45763;-76
2023/03/01 03:55:33;;;;;;;;;17.00;17.00;;;;;2.82;47.37;101859.22;5105102;27;45665;-77
2023/03/01 03:58:02;;;;;;;;;16.25;14.25;;;;;2.83;47.40;101848.00;5096493;27;46592;-77
2023/03/01 04:00:27;;;;;;;;;21.00;18.25;;;;;2.82;47.48;101858.38;5093625;27;46272;-76
2023/03/01 04:02:56;;;;;;;;;22.75;18.75;;;;;2.86;47.45;101862.63;5094928;27;45604;-77
2023/03/01 04:05:22;;;;;;;;;24.25;19.50;;;;;2.86;47.68;101860.06;5090855;27;45874;-76
2023/03/01 04:07:48;;;;;;;;;15.25;13.50;;;;;2.86;47.62;101865.22;5058983;28;46425;-77
2023/03/01 04:10:17;;;;;;;;;18.50;15.25;;;;;2.86;47.70;101860.88;5083843;27;45694;-77
2023/03/01 04:12:43;;;;;;;;;24.75;18.75;;;;;2.83;48.04;101858.34;5091646;27;46056;-77
2023/03/01 04:15:14;;;;;;;;;21.00;18.75;;;;;2.78;47.96;101841.22;5094849;27;45940;-77
2023/03/01 04:17:43;;;;;;;;;14.00;11.75;;;;;2.72;47.87;101844.78;5091134;27;45580;-78
2023/03/01 04:20:11;;;;;;;;;22.75;16.75;;;;;2.79;48.03;101848.09;5092237;27;46009;-77
2023/03/01 04:22:39;;;;;;;;;9.00;7.00;;;;;2.82;47.84;101864.41;5093245;27;45755;-77
2023/03/01 04:25:05;;;;;;;;;23.25;19.50;;;;;2.52;48.32;101808.94;5091265;27;46282;-78
2023/03/01 04:27:33;;;;;;;;;23.75;18.75;;;;;2.67;48.14;101836.25;5092863;27;46147;-78
2023/03/01 04:29:58;;;;;;;;;18.25;18.00;;;;;2.72;48.12;101851.69;5091616;27;45836;-76
2023/03/01 04:32:24;;;;;;;;;24.50;19.00;;;;;2.69;48.08;101834.50;5092762;27;46233;-77
2023/03/01 04:34:49;;;;;;;;;19.50;18.25;;;;;2.76;47.75;101856.75;5089926;27;46387;-78
2023/03/01 04:37:15;;;;;;;;;18.25;16.50;;;;;2.77;47.87;101845.53;5090974;27;46331;-77
2023/03/01 04:39:45;;;;;;;;;20.00;15.00;;;;;2.78;48.18;101846.38;5091959;27;45906;-78
2023/03/01 04:42:11;;;;;;;;;23.00;18.50;;;;;2.46;48.17;101798.72;5091541;27;45743;-77
2023/03/01 04:44:37;;;;;;;;;15.00;12.00;;;;;2.78;48.37;101848.97;5090200;27;46901;-78
2023/03/01 04:47:02;;;;;;;;;22.00;19.75;;;;;2.76;48.33;101842.97;5092848;27;45715;-79
2023/03/01 04:49:27;;;;;;;;;23.25;20.50;;;;;2.48;48.03;101794.34;5088490;27;45615;-78
2023/03/01 04:51:53;;;;;;;;;12.00;10.00;;;;;2.73;48.42;101843.91;5095131;27;45963;-77
2023/03/01 04:54:18;;;;;;;;;21.75;18.00;;;;;2.68;48.47;101832.78;5084421;27;46898;-77
2023/03/01 04:56:43;;;;;;;;;19.75;18.00;;;;;2.70;48.30;101835.34;5088512;27;46885;-76
2023/03/01 04:59:09;;;;;;;;;21.50;16.75;;;;;2.69;48.63;101837.09;5086053;27;47121;-77
2023/03/01 05:01:35;;;;;;;;;19.50;18.75;;;;;2.62;48.61;101830.31;5089243;27;45907;-78
2023/03/01 05:04:02;;;;;;;;;21.00;17.00;;;;;2.68;48.30;101844.84;5090270;27;46539;-78
2023/03/01 05:06:28;;;;;;;;;18.75;15.75;;;;;2.67;48.48;101832.81;5092412;27;47031;-78
2023/03/01 05:08:53;;;;;;;;;17.50;15.75;;;;;2.37;48.70;101792.84;5089807;27;45786;-77
2023/03/01 05:11:19;;;;;;;;;18.00;16.00;;;;;2.60;48.99;101821.72;5083605;27;46085;-78
2023/03/01 05:13:44;;;;;;;;;22.50;18.75;;;;;2.66;48.68;101831.94;5090039;27;45745;-77
2023/03/01 05:16:13;;;;;;;;;16.75;15.00;;;;;2.66;48.48;101829.34;5089976;27;45776;-77
2023/03/01 05:18:40;;;;;;;;;22.50;19.50;;;;;2.61;48.55;101813.06;5093213;27;45919;-78
2023/03/01 05:21:09;;;;;;;;;21.50;18.00;;;;;2.31;48.69;101780.03;5091585;27;45935;-78
2023/03/01 05:23:34;;;;;;;;;24.25;21.00;;;;;2.67;48.55;101835.38;5090968;27;45799;-77
2023/03/01 05:26:03;;;;;;;;;24.00;16.00;;;;;2.67;48.66;101827.63;5090875;27;46334;-78
2023/03/01 05:28:30;;;;;;;;;19.75;17.25;;;;;2.66;48.89;101824.19;5094840;27;45903;-77
2023/03/01 05:30:56;;;;;;;;;22.50;19.00;;;;;2.64;48.62;101825.13;5089299;27;45765;-77
2023/03/01 05:33:23;;;;;;;;;20.50;18.75;;;;;2.67;49.00;101828.47;5092084;27;45749;-77
2023/03/01 05:35:49;;;;;;;;;24.00;18.00;;;;;2.67;48.76;101827.63;5091176;27;46030;-77
2023/03/01 05:38:16;;;;;;;;;24.75;21.00;;;;;2.66;48.86;101831.09;5073829;27;47090;-77
2023/03/01 05:40:43;;;;;;;;;23.75;19.75;;;;;2.60;49.02;101820.84;5088854;27;45701;-77
2023/03/01 05:43:10;;;;;;;;;20.50;17.00;;;;;2.60;48.84;101820.84;5069486;27;48305;-76
2023/03/01 05:45:40;;;;;;;;;22.25;17.50;;;;;2.59;48.91;101814.84;5089180;27;46301;-77
2023/03/01 05:48:06;;;;;;;;;27.50;24.50;;;;;2.61;49.24;101823.41;5091404;27;46197;-75
2023/03/01 05:50:34;;;;;;;;;21.25;19.00;;;;;2.61;49.33;101819.97;5089571;27;45693;-78
2023/03/01 05:53:12;;;;;;;;;22.50;19.50;;;;;2.60;49.11;101815.69;5088819;27;46350;-77
2023/03/01 05:55:38;;;;;;;;;24.00;19.00;;;;;2.57;49.36;101815.75;5090667;27;47083;-77
2023/03/01 05:58:06;;;;;;;;;23.50;21.00;;;;;2.54;49.48;101822.69;5091539;27;45615;-76
2023/03/01 06:00:33;;;;;;;;;16.50;15.25;;;;;2.53;49.72;101822.72;5095413;27;45745;-77
2023/03/01 06:02:59;;;;;;;;;25.25;21.25;;;;;2.51;49.51;101820.16;5091788;27;45702;-77
2023/03/01 06:05:25;;;;;;;;;23.50;20.50;;;;;2.37;49.61;101790.28;5091970;27;45936;-76
2023/03/01 06:07:51;;;;;;;;;21.50;18.00;;;;;2.42;49.45;101812.59;5095292;27;46385;-76
2023/03/01 06:10:18;;;;;;;;;28.25;22.00;;;;;2.43;49.95;101822.03;5090761;27;45666;-77
2023/03/01 06:12:44;;;;;;;;;24.00;20.00;;;;;2.45;49.51;101819.41;5088201;27;45920;-77
2023/03/01 06:15:14;;;;;;;;;25.25;21.50;;;;;2.42;50.45;101815.16;5068942;27;47040;-77
2023/03/01 06:17:41;;;;;;;;;26.75;22.50;;;;;2.41;50.12;101817.78;5092540;27;46217;-77
2023/03/01 06:20:14;;;;;;;;;23.50;19.50;;;;;2.40;50.49;101803.13;5091488;27;45797;-75
2023/03/01 06:22:41;;;;;;;;;23.50;17.50;;;;;2.35;50.30;101789.44;5099193;27;46492;-76
2023/03/01 06:25:08;;;;;;;;;31.50;25.50;;;;;2.40;50.28;101805.72;5092941;27;46020;-77
2023/03/01 06:27:33;;;;;;;;;29.00;23.00;;;;;2.39;50.41;101798.84;5093600;27;45841;-74
2023/03/01 06:29:59;;;;;;;;;30.75;23.50;;;;;2.41;50.14;101805.69;5091215;27;45750;-74
2023/03/01 06:32:24;;;;;;;;;27.50;23.75;;;;;2.33;50.57;101783.44;5090674;27;46470;-76
2023/03/01 06:34:50;;;;;;;;;36.00;24.75;;;;;2.41;50.50;101791.91;5094497;27;47054;-77
2023/03/01 06:37:15;;;;;;;;;24.50;22.00;;;;;2.42;50.08;101796.22;5088920;27;46372;-74
2023/03/01 06:39:41;;;;;;;;;27.00;23.25;;;;;2.23;50.38;101763.81;5091683;27;45811;-76
2023/03/01 06:42:08;;;;;;;;;25.50;22.00;;;;;2.39;51.01;101798.84;5091871;27;46377;-77
2023/03/01 06:44:33;;;;;;;;;27.00;25.75;;;;;2.44;50.56;101807.34;5095553;27;47505;-73
2023/03/01 06:46:59;;;;;;;;;30.50;24.00;;;;;2.42;50.55;101794.47;5106880;27;45576;-74
2023/03/01 06:49:24;;;;;;;;;28.25;23.50;;;;;2.44;50.55;101792.69;5093968;27;45653;-73
2023/03/01 06:51:49;;;;;;;;;28.75;24.50;;;;;2.42;50.53;101781.56;5087032;27;46267;-75
2023/03/01 06:54:15;;;;;;;;;23.75;20.50;;;;;2.37;51.11;101780.78;5090787;27;45702;-75
2023/03/01 06:56:40;;;;;;;;;25.50;21.75;;;;;2.32;50.75;101776.56;5092609;27;45807;-75
2023/03/01 06:59:07;;;;;;;;;30.00;25.25;;;;;2.37;50.64;101790.28;5092935;27;45694;-74
2023/03/01 07:01:32;;;;;;;;;37.25;30.50;;;;;2.36;50.99;101788.56;5075680;27;47300;-73
2023/03/01 07:03:58;;;;;;;;;29.00;26.00;;;;;2.36;51.12;101788.56;5090800;27;46649;-71
2023/03/01 07:06:23;;;;;;;;;35.00;28.50;;;;;2.35;50.84;101776.50;5074556;27;45891;-73
2023/03/01 07:08:49;;;;;;;;;30.50;26.25;;;;;2.32;51.00;101777.41;5091977;27;45866;-73
2023/03/01 07:11:15;;;;;;;;;28.50;25.00;;;;;2.34;50.88;101780.81;5088910;27;46993;-73
2023/03/01 07:13:40;;;;;;;;;38.25;29.00;;;;;2.25;51.10;101759.47;5097444;27;45904;-74
2023/03/01 07:16:06;;;;;;;;;29.50;23.00;;;;;2.32;51.41;101779.16;5070546;28;45789;-73
2023/03/01 07:18:31;;;;;;;;;38.25;30.00;;;;;2.33;50.90;101773.94;5098196;27;45902;-74
2023/03/01 07:20:57;;;;;;;;;29.25;25.00;;;;;2.28;51.53;101775.75;5090421;27;46821;-74
2023/03/01 07:23:22;;;;;;;;;39.50;30.50;;;;;2.33;51.42;101781.69;5104222;27;47250;-75
2023/03/01 07:25:54;;;;;;;;;29.00;27.00;;;;;2.27;51.36;101773.22;5093289;27;46177;-71
2023/03/01 07:28:22;;;;;;;;;37.25;28.00;;;;;2.33;51.17;101775.66;5093172;27;45785;-73
2023/03/01 07:30:47;;;;;;;;;36.75;29.75;;;;;2.34;51.15;101782.56;5090469;27;47608;-76
2023/03/01 07:33:12;;;;;;;;;30.75;26.00;;;;;2.36;51.72;101783.38;5092294;27;46183;-74
2023/03/01 07:35:37;;;;;;;;;36.33;29.33;;;;;2.32;51.33;101769.66;5092395;27;46072;-73
2023/03/01 07:38:04;;;;;;;;;37.00;32.33;;;;;2.33;51.95;101773.94;5092322;27;46137;-74
2023/03/01 07:40:29;;;;;;;;;31.25;27.75;;;;;2.35;51.29;101779.09;5094686;27;47836;-72
2023/03/01 07:42:56;;;;;;;;;32.50;28.50;;;;;2.36;51.71;101779.06;5091232;27;46256;-75
2023/03/01 07:45:21;;;;;;;;;33.75;27.50;;;;;2.37;51.29;101773.03;5092505;27;45788;-75
2023/03/01 07:47:46;;;;;;;;;38.75;26.75;;;;;2.37;51.18;101767.84;5090992;27;45722;-73
2023/03/01 07:50:13;;;;;;;;;36.00;30.50;;;;;2.44;51.37;101778.91;5091787;27;46888;-73
2023/03/01 07:52:38;;;;;;;;;26.50;20.50;;;;;2.46;51.32;101775.44;5073876;27;47384;-73
2023/03/01 07:55:04;;;;;;;;;42.00;30.75;;;;;2.48;51.38;101771.06;5089819;27;45651;-74
2023/03/01 07:57:29;;;;;;;;;29.50;23.75;;;;;2.51;51.48;101775.34;5092435;27;45678;-76
2023/03/01 07:59:55;;;;;;;;;37.25;33.25;;;;;2.52;51.59;101766.72;5090893;27;46372;-74
2023/03/01 08:02:20;;;;;;;;;32.50;30.00;;;;;2.56;51.45;101772.66;5091743;27;47128;-72
2023/03/01 08:04:45;;;;;;;;;36.50;27.00;;;;;2.54;51.56;101770.94;5092470;27;45753;-74
2023/03/01 08:07:11;;;;;;;;;31.50;28.00;;;;;2.57;50.96;101775.22;5092041;27;46029;-72
2023/03/01 08:09:37;;;;;;;;;32.33;27.67;;;;;2.56;51.11;101775.25;5092091;27;45742;-74
2023/03/01 08:12:04;;;;;;;;;31.50;26.50;;;;;2.63;50.91;101780.28;5091083;27;48176;-71
2023/03/01 08:14:29;;;;;;;;;37.25;32.50;;;;;2.64;50.91;101779.41;5093043;27;45701;-72
2023/03/01 08:16:55;;;;;;;;;36.50;32.00;;;;;2.64;51.11;101775.97;5092710;27;45604;-74
2023/03/01 08:19:20;;;;;;;;;33.00;29.50;;;;;2.63;50.83;101769.94;5082978;27;47880;-74
2023/03/01 08:21:46;;;;;;;;;43.00;34.50;;;;;2.70;51.39;101775.84;5091225;27;47203;-73
2023/03/01 08:24:11;;;;;;;;;36.00;30.00;;;;;2.71;51.08;101768.03;5092341;27;45756;-75
2023/03/01 08:26:37;;;;;;;;;31.50;27.00;;;;;2.69;51.26;101759.47;5092539;27;45751;-74
2023/03/01 08:29:03;;;;;;;;;44.25;35.25;;;;;2.79;50.72;101765.31;5091945;27;46179;-76
2023/03/01 08:31:33;;;;;;;;;40.00;31.75;;;;;2.82;50.71;101765.22;5085506;27;46711;-74
2023/03/01 08:34:00;;;;;;;;;32.75;29.00;;;;;2.86;50.96;101764.31;5092340;27;45780;-74
2023/03/01 08:36:32;;;;;;;;;25.50;21.50;;;;;2.91;50.66;101762.47;5093181;27;45747;-75
2023/03/01 08:38:57;;;;;;;;;28.50;24.75;;;;;2.89;50.66;101762.50;5092720;27;47402;-74
2023/03/01 08:41:23;;;;;;;;;31.00;24.75;;;;;2.92;50.94;101765.00;5090716;27;46076;-74
2023/03/01 08:43:49;;;;;;;;;33.75;31.00;;;;;2.97;50.69;101769.25;5092561;27;45632;-74
2023/03/01 08:46:15;;;;;;;;;34.25;31.00;;;;;3.00;50.63;101758.81;5092021;27;45849;-77
2023/03/01 08:48:42;;;;;;;;;33.75;28.25;;;;;3.02;50.71;101762.25;5092258;27;47412;-75
2023/03/01 08:51:13;;;;;;;;;36.25;30.75;;;;;3.05;50.59;101759.56;5091964;27;46249;-74
2023/03/01 08:53:40;;;;;;;;;38.50;33.50;;;;;3.07;50.81;101739.69;5094017;27;45685;-75
2023/03/01 08:56:05;;;;;;;;;34.25;30.75;;;;;3.16;50.59;101753.28;5092465;27;45580;-73
2023/03/01 08:58:31;;;;;;;;;39.25;35.50;;;;;3.17;50.37;101746.38;5092608;27;47036;-75
2023/03/01 09:00:57;;;;;;;;;36.50;33.75;;;;;3.21;50.52;101732.47;5090716;27;47363;-74
2023/03/01 09:03:23;;;;;;;;;34.75;29.25;;;;;3.30;50.37;101752.97;5081612;27;45657;-72
2023/03/01 09:05:50;;;;;;;;;36.25;31.00;;;;;3.31;49.98;101742.56;5088649;27;45846;-76
2023/03/01 09:08:16;;;;;;;;;43.00;35.50;;;;;3.29;50.23;101726.22;5091653;27;46490;-74
2023/03/01 09:10:41;;;;;;;;;33.75;28.75;;;;;3.40;50.33;101735.50;5089780;27;46277;-73
2023/03/01 09:13:06;;;;;;;;;34.75;31.25;;;;;3.46;50.10;101735.31;5091493;27;45589;-73
2023/03/01 09:15:33;;;;;;;;;40.00;31.75;;;;;3.42;50.18;101716.44;5092126;27;45978;-73
2023/03/01 09:17:59;;;;;;;;;39.00;34.50;;;;;3.54;49.87;101730.81;5073597;27;46657;-72
2023/03/01 09:20:25;;;;;;;;;26.25;25.00;;;;;3.49;49.58;101707.63;5090458;27;45730;-72
2023/03/01 09:22:50;;;;;;;;;34.00;31.25;;;;;3.61;49.70;101716.84;5091331;27;45880;-72
2023/03/01 09:25:15;;;;;;;;;42.25;37.00;;;;;3.60;49.43;101713.41;5091373;27;45697;-72
2023/03/01 09:27:41;;;;;;;;;33.25;30.75;;;;;3.65;49.37;101702.91;5092035;27;47150;-72
2023/03/01 09:30:07;;;;;;;;;36.25;34.00;;;;;3.65;49.35;101695.16;5091604;27;46168;-72
2023/03/01 09:32:32;;;;;;;;;30.50;28.75;;;;;3.69;49.29;101700.22;5103103;27;45840;-75
2023/03/01 09:35:03;;;;;;;;;39.75;31.75;;;;;3.71;49.41;101707.97;5092044;27;45824;-72
2023/03/01 09:37:28;;;;;;;;;28.00;25.00;;;;;3.73;49.41;101688.00;5091671;27;46464;-73
2023/03/01 09:39:54;;;;;;;;;32.25;26.25;;;;;3.78;49.26;101696.53;5091173;27;47894;-75
2023/03/01 09:42:19;;;;;;;;;35.33;29.67;;;;;3.82;49.22;101686.94;5095208;27;45503;-74
2023/03/01 09:45:05;;;;;;;;;37.25;30.00;;;;;3.86;48.97;101697.19;5095516;27;45580;-73
2023/03/01 09:47:34;;;;;;;;;38.75;35.00;;;;;3.88;48.88;101692.81;5095411;27;46677;-75
2023/03/01 09:50:00;;;;;;;;;24.00;21.00;;;;;3.91;48.97;101694.47;5094064;27;46174;-74
2023/03/01 09:52:36;;;;;;;;;29.00;24.67;;;;;3.89;48.75;101672.94;5095268;27;45671;-76
2023/03/01 09:55:09;;;;;;;;;35.75;25.75;;;;;3.98;48.61;101693.44;5095557;27;45750;-75
2023/03/01 09:57:53;;;;;;;;;34.75;32.50;;;;;4.00;48.49;101678.66;5094458;27;48284;-75
2023/03/01 10:00:18;;;;;;;;;35.50;28.50;;;;;4.02;48.56;101685.53;5094475;27;46617;-73
2023/03/01 10:02:59;;;;;;;;;26.00;19.67;;;;;3.97;48.74;101664.06;5094796;27;45716;-74
2023/03/01 10:05:41;;;;;;;;;30.50;23.00;;;;;4.02;48.46;101675.16;5094616;27;45770;-74
2023/03/01 10:08:25;;;;;;;;;31.00;27.50;;;;;4.05;48.56;101674.25;5094290;27;46458;-73
2023/03/01 10:10:52;;;;;;;;;35.75;28.75;;;;;4.06;48.61;101676.78;5093542;27;45808;-72
2023/03/01 10:13:26;;;;;;;;;37.00;28.75;;;;;4.10;48.54;101667.19;5094571;27;46007;-72
2023/03/01 10:16:05;;;;;;;;;34.50;31.75;;;;;4.15;48.36;101660.97;5081443;27;45731;-72
2023/03/01 10:18:36;;;;;;;;;30.25;26.00;;;;;4.18;48.46;101668.66;5095034;27;47945;-71
2023/03/01 10:21:23;;;;;;;;;37.50;32.50;;;;;4.21;48.46;101665.97;5094070;27;46732;-74
2023/03/01 10:23:51;;;;;;;;;41.25;32.75;;;;;4.28;48.29;101664.06;5107307;27;45685;-73
2023/03/01 10:26:16;;;;;;;;;40.25;32.00;;;;;4.30;48.39;101657.09;5095022;27;45683;-71
2023/03/01 10:29:02;;;;;;;;;35.00;31.67;;;;;4.37;47.88;101655.19;5075539;27;47879;-71
2023/03/01 10:31:37;;;;;;;;;40.25;36.75;;;;;4.38;48.20;101638.69;5085944;27;47044;-71
2023/03/01 10:34:10;;;;;;;;;31.75;26.25;;;;;4.45;47.75;101651.47;5082802;27;46369;-75
2023/03/01 10:36:37;;;;;;;;;33.50;30.50;;;;;4.52;48.03;101658.19;5094084;27;45684;-72
2023/03/01 10:39:12;;;;;;;;;42.50;36.00;;;;;4.59;47.73;101656.22;5094015;27;46565;-72
2023/03/01 10:41:58;;;;;;;;;36.50;30.75;;;;;4.58;47.70;101639.00;5079410;27;46412;-73
2023/03/01 10:44:45;;;;;;;;;36.50;32.50;;;;;4.65;47.89;101645.69;5094303;27;45777;-73
2023/03/01 10:47:22;;;;;;;;;36.25;31.00;;;;;4.70;47.83;101661.97;5094145;27;45557;-72
2023/03/01 10:49:57;;;;;;;;;43.25;36.00;;;;;4.72;47.64;101662.78;5094080;27;45871;-71
2023/03/01 10:52:40;;;;;;;;;40.50;32.00;;;;;4.74;47.82;101640.22;5107660;27;47466;-71
2023/03/01 10:55:12;;;;;;;;;35.75;31.25;;;;;4.78;47.63;101652.22;5081665;27;45814;-71
2023/03/01 10:57:42;;;;;;;;;36.00;24.50;;;;;4.77;47.61;101634.94;5091747;27;45707;-74
2023/03/01 11:00:26;;;;;;;;;34.50;28.75;;;;;4.78;47.67;101636.63;5092302;27;46424;-73
2023/03/01 11:03:12;;;;;;;;;37.00;31.75;;;;;4.81;47.46;101628.75;5090416;27;46178;-75
2023/03/01 11:05:51;;;;;;;;;28.25;22.25;;;;;4.91;47.01;101622.38;5090815;27;45990;-75
2023/03/01 11:08:30;;;;;;;;;37.25;32.25;;;;;4.90;47.11;101619.84;5090984;27;45543;-70
2023/03/01 11:11:13;;;;;;;;;37.50;33.00;;;;;5.00;47.00;101629.88;5092936;27;46499;-75
2023/03/01 11:14:06;;;;;;;;;30.75;26.75;;;;;5.05;46.75;101628.00;5093413;27;46011;-73
2023/03/01 11:16:37;;;;;;;;;35.00;26.75;;;;;5.12;46.58;101630.41;5094228;27;45689;-76
2023/03/01 11:19:08;;;;;;;;;34.00;31.75;;;;;5.16;46.63;101621.59;5093530;27;45810;-76
2023/03/01 11:21:37;;;;;;;;;37.25;30.25;;;;;5.18;46.92;101619.81;5092893;27;46288;-76
2023/03/01 11:24:06;;;;;;;;;37.75;32.25;;;;;5.23;46.67;101617.91;5093719;27;46290;-75